Time;durP1;ratioP1;P1;durP2;ratioP2;P2;SDS_P1;SDS_P2;PMS_P1;PMS_P2;Temp;Humidity;BMP_temperature;BMP_pressure;BME280_temperature;BME280_humidity;BME280_pressure;Samples;Min_cycle;Max_cycle;Signal;HPM_P1;HPM_P2
2021/05/20 00:01:18;;;;;;;3.70;3.25;;;;;;;16.63;68.34;93607.33;827278;71;32683;-75
2021/05/20 00:16:14;;;;;;;8.00;3.58;;;;;;;16.51;72.02;93607.45;828659;71;32685;-79
2021/05/20 00:31:12;;;;;;;4.83;3.58;;;;;;;16.33;74.56;93604.42;833974;71;32084;-77
2021/05/20 00:46:09;;;;;;;3.92;3.00;;;;;;;16.14;74.78;93581.30;827978;71;30815;-76
2021/05/20 01:01:10;;;;;;;4.25;3.60;;;;;;;15.97;75.71;93592.48;834212;71;30161;-77
2021/05/20 01:16:12;;;;;;;4.50;3.47;;;;;;;15.84;75.45;93562.52;833984;71;29443;-75
2021/05/20 01:31:09;;;;;;;4.17;3.20;;;;;;;15.66;74.31;93560.75;828263;71;29489;-77
2021/05/20 01:46:11;;;;;;;3.17;2.87;;;;;;;15.46;74.77;93526.30;828053;71;30262;-76
2021/05/20 02:01:16;;;;;;;5.40;3.08;;;;;;;15.31;75.37;93515.95;834044;71;32671;-79
2021/05/20 02:16:16;;;;;;;3.47;3.17;;;;;;;15.20;74.44;93505.66;833995;71;32322;-76
2021/05/20 02:31:15;;;;;;;6.37;3.12;;;;;;;15.11;74.60;93487.90;827405;71;32661;-78
2021/05/20 02:46:15;;;;;;;3.92;3.12;;;;;;;15.05;75.95;93486.63;828359;71;32709;-76
2021/05/20 03:01:51;;;;;;;5.05;3.30;;;;;;;14.97;76.25;93493.03;833987;71;32006;-78
2021/05/20 03:16:14;;;;;;;3.92;3.30;;;;;;;14.92;77.08;93511.00;833838;71;33176;-75
2021/05/20 03:31:08;;;;;;;3.83;3.40;;;;;;;14.84;79.47;93539.09;830104;71;29837;-78
2021/05/20 03:46:08;;;;;;;4.97;4.58;;;;;;;14.65;80.21;93553.50;828309;71;29680;-76
2021/05/20 04:01:15;;;;;;;5.12;4.83;;;;;;;14.56;80.08;93567.61;827315;71;33156;-76
2021/05/20 04:16:13;;;;;;;6.15;5.65;;;;;;;15.06;77.30;93569.48;834335;71;32468;-77
2021/05/20 04:31:11;;;;;;;5.70;5.00;;;;;;;15.01;77.12;93573.14;828075;71;30367;-79
2021/05/20 04:46:10;;;;;;;4.80;4.50;;;;;;;15.54;76.77;93585.41;829183;71;30284;-78
2021/05/20 05:01:09;;;;;;;4.15;3.80;;;;;;;15.71;72.04;93584.28;828198;71;30718;-75
2021/05/20 05:16:15;;;;;;;4.53;4.12;;;;;;;15.89;72.11;93612.51;828880;71;33328;-76
2021/05/20 05:31:18;;;;;;;3.47;3.22;;;;;;;15.60;71.35;93613.89;827522;71;33515;-77
2021/05/20 05:46:09;;;;;;;2.40;2.20;;;;;;;15.09;71.84;93632.23;834287;71;29712;-77
2021/05/20 06:01:14;;;;;;;2.12;1.98;;;;;;;14.57;71.26;93677.38;828606;71;32697;-77
2021/05/20 06:16:08;;;;;;;2.08;1.98;;;;;;;14.14;75.45;93723.56;830150;71;29781;-77
2021/05/20 06:31:14;;;;;;;3.80;2.22;;;;;;;14.17;76.22;93715.00;833944;71;32686;-75
2021/05/20 06:46:19;;;;;;;3.25;2.95;;;;;;;14.35;74.56;93725.32;827496;71;32712;-74
2021/05/20 07:01:14;;;;;;;1.98;1.60;;;;;;;14.35;72.33;93716.08;827670;71;32763;-76
2021/05/20 07:16:14;;;;;;;1.77;1.67;;;;;;;15.08;70.93;93718.44;834212;71;32676;-77
2021/05/20 07:31:14;;;;;;;2.02;1.92;;;;;;;15.72;67.84;93728.66;833821;71;32750;-77
2021/05/20 07:46:28;;;;;;;1.80;1.70;;;;;;;15.99;64.52;93725.77;833868;71;32816;-77
2021/05/20 08:01:15;;;;;;;1.70;1.60;;;;;;;15.59;63.07;93741.94;826807;71;32770;-75
2021/05/20 08:16:08;;;;;;;1.30;1.20;;;;;;;15.67;61.43;93772.53;821261;71;29685;-75
2021/05/20 08:31:08;;;;;;;1.70;1.60;;;;;;;16.03;60.88;93780.31;813713;71;29356;-78
2021/05/20 08:46:09;;;;;;;1.60;1.50;;;;;;;16.62;58.09;93784.00;834589;71;29762;-75
2021/05/20 09:01:48;;;;;;;2.12;2.00;;;;;;;17.38;56.20;93793.09;834110;71;29725;-77
2021/05/20 09:16:17;;;;;;;1.35;1.32;;;;;;;17.96;53.21;93782.27;833967;71;32742;-78
2021/05/20 09:31:16;;;;;;;1.30;1.20;;;;;;;18.71;50.58;93764.16;834225;71;30248;-74
2021/05/20 09:46:18;;;;;;;1.20;1.20;;;;;;;19.43;47.68;93770.49;827867;71;32678;-77
2021/05/20 10:01:12;;;;;;;1.70;1.60;;;;;;;19.06;47.72;93762.61;828169;71;30202;-78
2021/05/20 10:16:08;;;;;;;1.60;1.50;;;;;;;19.55;47.24;93755.62;834029;71;30128;-77
2021/05/20 10:31:15;;;;;;;1.70;1.60;;;;;;;21.08;44.72;93740.80;828247;71;32656;-78
2021/05/20 10:46:11;;;;;;;2.20;2.10;;;;;;;21.28;43.23;93743.95;834163;71;29738;-78
2021/05/20 11:01:24;;;;;;;2.90;2.70;;;;;;;20.35;43.02;93732.65;823146;71;31046;-75
2021/05/20 11:16:30;;;;;;;2.92;2.72;;;;;;;21.95;41.35;93697.27;818560;71;33184;-76
2021/05/20 11:31:09;;;;;;;3.33;3.12;;;;;;;21.51;41.06;93695.66;829128;71;29694;-77
2021/05/20 11:46:22;;;;;;;2.70;2.60;;;;;;;21.15;40.84;93692.82;828399;71;29814;-76
2021/05/20 12:01:17;;;;;;;2.92;2.80;;;;;;;20.50;42.42;93700.20;834015;71;32693;-75
2021/05/20 12:16:09;;;;;;;3.37;3.08;;;;;;;20.26;45.19;93695.67;834115;71;30127;-74
2021/05/20 12:31:17;;;;;;;3.62;2.90;;;;;;;21.77;43.53;93680.45;834237;71;32823;-79
2021/05/20 12:46:17;;;;;;;3.27;3.10;;;;;;;21.44;42.39;93696.20;828487;71;29758;-75
2021/05/20 13:01:15;;;;;;;3.12;2.95;;;;;;;21.17;42.55;93708.46;800604;74;32818;-77
2021/05/20 13:16:20;;;;;;;3.05;2.85;;;;;;;20.89;43.68;93687.16;829016;71;30777;-78
2021/05/20 13:31:10;;;;;;;3.10;2.90;;;;;;;21.08;42.69;93678.09;829504;71;29756;-80
2021/05/20 13:46:56;;;;;;;3.25;3.05;;;;;;;20.36;42.08;93642.27;807311;72;32964;-79
2021/05/20 14:01:28;;;;;;;3.10;2.90;;;;;;;20.23;43.63;93680.41;835481;71;32722;-79
2021/05/20 14:16:21;;;;;;;3.60;3.30;;;;;;;19.89;44.93;93691.17;835342;71;32636;-76
2021/05/20 14:31:15;;;;;;;4.00;3.70;;;;;;;19.39;46.61;93732.62;833883;71;32690;-77
2021/05/20 14:46:15;;;;;;;3.35;3.08;;;;;;;19.01;47.14;93746.38;827395;71;33257;-75
2021/05/20 15:16:15;;;;;;;2.40;2.30;;;;;;;18.38;45.87;93738.41;834064;71;29785;-78
2021/05/20 15:31:32;;;;;;;2.40;2.30;;;;;;;18.62;45.41;93749.80;833821;71;32722;-80
2021/05/20 15:46:10;;;;;;;2.52;2.10;;;;;;;18.67;44.11;93772.63;833874;71;30773;-76
2021/05/20 16:01:30;;;;;;;2.67;2.50;;;;;;;18.70;47.81;93791.30;833544;71;33524;-79
2021/05/20 16:16:18;;;;;;;3.55;1.98;;;;;;;17.88;48.99;93813.22;830695;71;32726;-77
2021/05/20 16:46:19;;;;;;;2.00;1.90;;;;;;;16.67;51.07;93863.03;833548;71;32779;-76
2021/05/20 17:01:14;;;;;;;2.20;2.00;;;;;;;16.27;51.28;93883.77;810476;71;33808;-79
2021/05/20 17:16:09;;;;;;;1.90;1.80;;;;;;;15.87;51.54;93908.39;815854;71;30202;-77
2021/05/20 17:31:14;;;;;;;2.40;2.30;;;;;;;15.54;52.88;93923.86;827271;71;33220;-78
2021/05/20 17:46:16;;;;;;;3.17;2.70;;;;;;;15.29;53.65;93923.89;827054;71;33276;-75
2021/05/20 18:01:09;;;;;;;5.78;3.90;;;;;;;15.73;54.78;93935.20;833851;71;29806;-77
2021/05/20 18:16:16;;;;;;;3.05;2.75;;;;;;;15.12;55.51;93947.32;827763;71;30146;-76
2021/05/20 18:31:15;;;;;;;3.15;2.95;;;;;;;14.67;57.45;93972.45;789418;74;32909;-79
2021/05/20 18:46:08;;;;;;;2.98;2.70;;;;;;;14.37;59.68;93996.30;828890;71;29405;-81
2021/05/20 19:01:09;;;;;;;2.52;2.33;;;;;;;14.07;61.03;94028.05;822421;71;30222;-77
2021/05/20 19:16:13;;;;;;;2.65;2.55;;;;;;;13.84;62.32;94048.64;833822;71;32442;-76
2021/05/20 19:31:19;;;;;;;2.83;2.67;;;;;;;13.73;63.25;94067.25;814515;71;33885;-77
2021/05/20 19:46:15;;;;;;;2.42;2.33;;;;;;;13.57;63.72;94079.63;827410;71;32739;-79
2021/05/20 20:01:11;;;;;;;2.90;2.70;;;;;;;13.46;63.85;94092.16;819040;71;30449;-79
2021/05/20 20:16:16;;;;;;;2.35;2.22;;;;;;;13.33;63.64;94096.54;828327;71;32785;-75
2021/05/20 20:31:19;;;;;;;2.30;2.20;;;;;;;13.18;63.72;94097.25;833990;71;32655;-76
2021/05/20 20:46:18;;;;;;;2.58;2.47;;;;;;;13.06;63.89;94091.05;833920;71;32692;-77
2021/05/20 21:01:48;;;;;;;2.30;2.20;;;;;;;13.01;64.29;94084.86;834173;71;29663;-78
2021/05/20 21:16:16;;;;;;;2.00;1.90;;;;;;;12.93;64.38;94088.28;827521;71;32757;-79
2021/05/20 21:31:09;;;;;;;2.30;2.10;;;;;;;12.79;65.25;94083.21;834236;71;29475;-76
2021/05/20 21:46:09;;;;;;;2.50;2.30;;;;;;;12.86;65.71;94091.18;834019;71;30293;-75
2021/05/20 22:01:31;;;;;;;2.45;2.20;;;;;;;12.89;65.79;94089.99;834354;71;32810;-77
2021/05/20 22:16:14;;;;;;;2.62;2.45;;;;;;;12.85;65.88;94083.80;828406;71;32774;-75
2021/05/20 22:31:30;;;;;;;3.00;2.70;;;;;;;12.82;65.91;94081.26;827514;71;32783;-78
2021/05/20 22:46:15;;;;;;;2.40;2.30;;;;;;;12.78;65.77;94090.86;828827;71;32784;-77
2021/05/20 23:01:15;;;;;;;2.30;2.20;;;;;;;12.73;66.17;94095.51;827655;71;32732;-77
2021/05/20 23:16:12;;;;;;;2.52;2.42;;;;;;;12.66;66.24;94092.03;834161;71;32063;-76
2021/05/20 23:31:09;;;;;;;2.47;2.37;;;;;;;12.72;66.39;94090.02;828099;71;30282;-78
2021/05/20 23:46:14;;;;;;;2.67;2.47;;;;;;;12.71;66.56;94091.09;833921;71;33212;-77
